sensor_id;sensor_type;location;lat;lon;timestamp;pressure;altitude;pressure_sealevel;temperature;humidity
21588;BME280;10956;48.878;13.316;2023-04-30T00:01:26;94327.38;;;8.88;100.00
21588;BME280;10956;48.878;13.316;2023-04-30T00:03:51;94318.41;;;8.84;100.00
21588;BME280;10956;48.878;13.316;2023-04-30T00:06:16;94333.59;;;8.77;100.00
21588;BME280;10956;48.878;13.316;2023-04-30T00:08:42;94328.34;;;8.77;100.00
21588;BME280;10956;48.878;13.316;2023-04-30T00:11:07;94329.91;;;8.78;100.00
21588;BME280;10956;48.878;13.316;2023-04-30T00:13:32;94321.78;;;8.79;100.00
21588;BME280;10956;48.878;13.316;2023-04-30T00:15:58;94323.16;;;8.87;100.00
21588;BME280;10956;48.878;13.316;2023-04-30T00:18:23;94327.13;;;8.89;100.00
21588;BME280;10956;48.878;13.316;2023-04-30T00:20:49;94327.13;;;8.89;100.00
21588;BME280;10956;48.878;13.316;2023-04-30T00:23:17;94331.59;;;8.89;100.00
21588;BME280;10956;48.878;13.316;2023-04-30T00:25:43;94333.16;;;8.90;100.00
21588;BME280;10956;48.878;13.316;2023-04-30T00:28:08;94327.91;;;8.90;100.00
21588;BME280;10956;48.878;13.316;2023-04-30T00:30:33;94328.19;;;8.93;100.00
21588;BME280;10956;48.878;13.316;2023-04-30T00:32:59;94334.78;;;8.96;100.00
21588;BME280;10956;48.878;13.316;2023-04-30T00:35:24;94332.91;;;8.91;100.00
21588;BME280;10956;48.878;13.316;2023-04-30T00:37:49;94334.97;;;8.84;100.00
21588;BME280;10956;48.878;13.316;2023-04-30T00:40:15;94325.25;;;8.85;100.00
21588;BME280;10956;48.878;13.316;2023-04-30T00:42:40;94326.78;;;8.81;100.00
21588;BME280;10956;48.878;13.316;2023-04-30T00:45:06;94331.53;;;8.84;100.00
21588;BME280;10956;48.878;13.316;2023-04-30T00:47:32;94330.47;;;8.80;100.00
21588;BME280;10956;48.878;13.316;2023-04-30T00:49:58;94337.84;;;8.83;100.00
21588;BME280;10956;48.878;13.316;2023-04-30T00:52:23;94339.44;;;8.84;100.00
21588;BME280;10956;48.878;13.316;2023-04-30T00:54:49;94335.22;;;8.83;100.00
21588;BME280;10956;48.878;13.316;2023-04-30T00:57:14;94347.78;;;8.76;100.00
21588;BME280;10956;48.878;13.316;2023-04-30T00:59:40;94344.09;;;8.77;100.00
21588;BME280;10956;48.878;13.316;2023-04-30T01:02:06;94334.09;;;8.73;100.00
21588;BME280;10956;48.878;13.316;2023-04-30T01:04:32;94346.44;;;8.73;100.00
21588;BME280;10956;48.878;13.316;2023-04-30T01:06:58;94341.44;;;8.71;100.00
21588;BME280;10956;48.878;13.316;2023-04-30T01:09:27;94339.84;;;8.70;100.00
21588;BME280;10956;48.878;13.316;2023-04-30T01:17:20;94346.09;;;8.64;100.00
21588;BME280;10956;48.878;13.316;2023-04-30T01:19:47;94345.31;;;8.64;100.00
21588;BME280;10956;48.878;13.316;2023-04-30T01:28:17;94362.91;;;8.63;100.00
21588;BME280;10956;48.878;13.316;2023-04-30T01:30:43;94363.44;;;8.65;100.00
21588;BME280;10956;48.878;13.316;2023-04-30T01:33:10;94354.53;;;8.66;100.00
21588;BME280;10956;48.878;13.316;2023-04-30T01:36:03;94359.97;;;8.60;100.00
21588;BME280;10956;48.878;13.316;2023-04-30T01:41:28;94369.09;;;8.52;100.00
21588;BME280;10956;48.878;13.316;2023-04-30T01:47:03;94366.44;;;8.47;100.00
21588;BME280;10956;48.878;13.316;2023-04-30T01:52:21;94374.84;;;8.49;100.00
21588;BME280;10956;48.878;13.316;2023-04-30T01:57:26;94378.50;;;8.48;100.00
21588;BME280;10956;48.878;13.316;2023-04-30T01:59:52;94374.84;;;8.49;100.00
21588;BME280;10956;48.878;13.316;2023-04-30T02:02:18;94381.94;;;8.49;100.00
21588;BME280;10956;48.878;13.316;2023-04-30T02:04:43;94385.34;;;8.49;100.00
21588;BME280;10956;48.878;13.316;2023-04-30T02:07:09;94375.34;;;8.46;100.00
21588;BME280;10956;48.878;13.316;2023-04-30T02:09:35;94382.19;;;8.47;100.00
21588;BME280;10956;48.878;13.316;2023-04-30T02:12:01;94380.59;;;8.46;100.00
21588;BME280;10956;48.878;13.316;2023-04-30T02:14:27;94388.97;;;8.43;100.00
21588;BME280;10956;48.878;13.316;2023-04-30T02:16:52;94392.09;;;8.40;100.00
21588;BME280;10956;48.878;13.316;2023-04-30T02:19:18;94383.13;;;8.36;100.00
21588;BME280;10956;48.878;13.316;2023-04-30T02:21:43;94395.13;;;8.32;100.00
21588;BME280;10956;48.878;13.316;2023-04-30T02:24:08;94391.16;;;8.29;100.00
21588;BME280;10956;48.878;13.316;2023-04-30T02:26:34;94400.06;;;8.28;100.00
21588;BME280;10956;48.878;13.316;2023-04-30T02:28:59;94403.97;;;8.26;100.00
21588;BME280;10956;48.878;13.316;2023-04-30T02:31:25;94408.19;;;8.27;100.00
21588;BME280;10956;48.878;13.316;2023-04-30T02:33:50;94406.91;;;8.29;100.00
21588;BME280;10956;48.878;13.316;2023-04-30T02:36:15;94402.44;;;8.30;100.00
21588;BME280;10956;48.878;13.316;2023-04-30T02:38:41;94407.69;;;8.30;100.00
21588;BME280;10956;48.878;13.316;2023-04-30T02:41:06;94409.88;;;8.33;100.00
21588;BME280;10956;48.878;13.316;2023-04-30T02:43:31;94414.53;;;8.31;100.00
21588;BME280;10956;48.878;13.316;2023-04-30T02:45:57;94409.53;;;8.29;100.00
21588;BME280;10956;48.878;13.316;2023-04-30T02:48:22;94412.66;;;8.26;100.00
21588;BME280;10956;48.878;13.316;2023-04-30T02:50:48;94419.50;;;8.27;100.00
21588;BME280;10956;48.878;13.316;2023-04-30T02:53:13;94413.44;;;8.27;100.00
21588;BME280;10956;48.878;13.316;2023-04-30T02:55:38;94407.16;;;8.28;100.00
21588;BME280;10956;48.878;13.316;2023-04-30T02:58:04;94408.75;;;8.29;100.00
21588;BME280;10956;48.878;13.316;2023-04-30T03:00:29;94409.78;;;8.28;100.00
21588;BME280;10956;48.878;13.316;2023-04-30T03:02:54;94415.03;;;8.28;100.00
21588;BME280;10956;48.878;13.316;2023-04-30T03:05:20;94421.06;;;8.28;100.00
21588;BME280;10956;48.878;13.316;2023-04-30T03:07:45;94417.66;;;8.28;100.00
21588;BME280;10956;48.878;13.316;2023-04-30T03:10:11;94415.53;;;8.25;100.00
21588;BME280;10956;48.878;13.316;2023-04-30T03:12:36;94421.56;;;8.25;100.00
21588;BME280;10956;48.878;13.316;2023-04-30T03:15:02;94422.38;;;8.26;100.00
21588;BME280;10956;48.878;13.316;2023-04-30T03:17:27;94426.31;;;8.28;100.00
21588;BME280;10956;48.878;13.316;2023-04-30T03:19:53;94430.28;;;8.31;100.00
21588;BME280;10956;48.878;13.316;2023-04-30T03:22:18;94428.25;;;8.33;100.00
21588;BME280;10956;48.878;13.316;2023-04-30T03:24:45;94428.78;;;8.35;100.00
21588;BME280;10956;48.878;13.316;2023-04-30T03:27:10;94422.50;;;8.36;100.00
21588;BME280;10956;48.878;13.316;2023-04-30T03:29:35;94427.75;;;8.36;100.00
21588;BME280;10956;48.878;13.316;2023-04-30T03:32:01;94432.53;;;8.39;100.00
21588;BME280;10956;48.878;13.316;2023-04-30T03:34:26;94434.09;;;8.40;100.00
21588;BME280;10956;48.878;13.316;2023-04-30T03:36:52;94425.69;;;8.38;100.00
21588;BME280;10956;48.878;13.316;2023-04-30T03:39:17;94428.31;;;8.38;100.00
21588;BME280;10956;48.878;13.316;2023-04-30T03:41:42;94427.25;;;8.39;100.00
21588;BME280;10956;48.878;13.316;2023-04-30T03:44:08;94424.09;;;8.37;100.00
21588;BME280;10956;48.878;13.316;2023-04-30T03:46:40;94431.41;;;8.35;100.00
21588;BME280;10956;48.878;13.316;2023-04-30T03:49:05;94418.53;;;8.33;100.00
21588;BME280;10956;48.878;13.316;2023-04-30T03:51:30;94434.28;;;8.33;100.00
21588;BME280;10956;48.878;13.316;2023-04-30T03:53:56;94433.50;;;8.33;100.00
21588;BME280;10956;48.878;13.316;2023-04-30T03:56:22;94433.50;;;8.33;100.00
21588;BME280;10956;48.878;13.316;2023-04-30T03:58:48;94436.13;;;8.33;100.00
21588;BME280;10956;48.878;13.316;2023-04-30T04:01:13;94435.88;;;8.34;100.00
21588;BME280;10956;48.878;13.316;2023-04-30T04:03:38;94428.25;;;8.33;100.00
21588;BME280;10956;48.878;13.316;2023-04-30T04:06:04;94441.94;;;8.35;100.00
21588;BME280;10956;48.878;13.316;2023-04-30T04:08:30;94446.13;;;8.36;100.00
21588;BME280;10956;48.878;13.316;2023-04-30T04:10:55;94441.44;;;8.38;100.00
21588;BME280;10956;48.878;13.316;2023-04-30T04:13:20;94447.47;;;8.38;100.00
21588;BME280;10956;48.878;13.316;2023-04-30T04:15:46;94447.78;;;8.42;100.00
21588;BME280;10956;48.878;13.316;2023-04-30T04:18:11;94444.38;;;8.41;100.00
21588;BME280;10956;48.878;13.316;2023-04-30T04:20:37;94446.75;;;8.43;100.00
21588;BME280;10956;48.878;13.316;2023-04-30T04:23:02;94445.22;;;8.47;100.00
21588;BME280;10956;48.878;13.316;2023-04-30T04:25:28;94442.66;;;8.52;100.00
21588;BME280;10956;48.878;13.316;2023-04-30T04:27:53;94455.34;;;8.60;100.00
21588;BME280;10956;48.878;13.316;2023-04-30T04:30:19;94454.59;;;8.65;100.00
21588;BME280;10956;48.878;13.316;2023-04-30T04:32:44;94452.28;;;8.68;100.00
21588;BME280;10956;48.878;13.316;2023-04-30T04:35:15;94455.75;;;8.74;100.00
21588;BME280;10956;48.878;13.316;2023-04-30T04:37:40;94457.63;;;8.79;100.00
21588;BME280;10956;48.878;13.316;2023-04-30T04:40:06;94458.72;;;8.83;100.00
21588;BME280;10956;48.878;13.316;2023-04-30T04:42:32;94460.13;;;8.90;100.00
21588;BME280;10956;48.878;13.316;2023-04-30T04:44:58;94455.44;;;8.97;100.00
21588;BME280;10956;48.878;13.316;2023-04-30T04:47:23;94458.91;;;9.03;100.00
21588;BME280;10956;48.878;13.316;2023-04-30T04:49:48;94464.75;;;9.10;100.00
21588;BME280;10956;48.878;13.316;2023-04-30T04:52:14;94465.56;;;9.11;100.00
21588;BME280;10956;48.878;13.316;2023-04-30T04:54:39;94459.78;;;9.14;100.00
21588;BME280;10956;48.878;13.316;2023-04-30T04:57:05;94459.59;;;9.20;100.00
21588;BME280;10956;48.878;13.316;2023-04-30T04:59:30;94463.34;;;9.29;100.00
21588;BME280;10956;48.878;13.316;2023-04-30T05:01:56;94466.03;;;9.34;100.00
21588;BME280;10956;48.878;13.316;2023-04-30T05:04:21;94459.22;;;9.38;100.00
21588;BME280;10956;48.878;13.316;2023-04-30T05:06:46;94461.94;;;9.49;100.00
21588;BME280;10956;48.878;13.316;2023-04-30T05:09:12;94454.06;;;9.54;100.00
21588;BME280;10956;48.878;13.316;2023-04-30T05:11:37;94457.28;;;9.61;100.00
21588;BME280;10956;48.878;13.316;2023-04-30T05:14:03;94459.44;;;9.69;100.00
21588;BME280;10956;48.878;13.316;2023-04-30T05:16:28;94467.41;;;9.79;100.00
21588;BME280;10956;48.878;13.316;2023-04-30T05:18:54;94457.44;;;9.86;100.00
21588;BME280;10956;48.878;13.316;2023-04-30T05:21:20;94459.34;;;9.96;100.00
21588;BME280;10956;48.878;13.316;2023-04-30T05:23:46;94464.09;;;9.99;100.00
21588;BME280;10956;48.878;13.316;2023-04-30T05:26:11;94461.75;;;10.02;100.00
21588;BME280;10956;48.878;13.316;2023-04-30T05:28:36;94467.56;;;10.10;100.00
21588;BME280;10956;48.878;13.316;2023-04-30T05:31:02;94479.47;;;10.17;100.00
21588;BME280;10956;48.878;13.316;2023-04-30T05:33:27;94468.22;;;10.27;100.00
21588;BME280;10956;48.878;13.316;2023-04-30T05:35:53;94472.19;;;10.34;100.00
21588;BME280;10956;48.878;13.316;2023-04-30T05:38:18;94474.63;;;10.46;100.00
21588;BME280;10956;48.878;13.316;2023-04-30T05:40:43;94474.69;;;10.61;100.00
21588;BME280;10956;48.878;13.316;2023-04-30T05:43:09;94470.50;;;10.76;100.00
21588;BME280;10956;48.878;13.316;2023-04-30T05:45:34;94477.63;;;10.80;100.00
21588;BME280;10956;48.878;13.316;2023-04-30T05:47:59;94468.16;;;10.84;100.00
21588;BME280;10956;48.878;13.316;2023-04-30T05:50:26;94476.06;;;10.89;100.00
21588;BME280;10956;48.878;13.316;2023-04-30T05:52:51;94470.03;;;10.99;100.00
21588;BME280;10956;48.878;13.316;2023-04-30T05:55:16;94473.22;;;11.11;100.00
21588;BME280;10956;48.878;13.316;2023-04-30T05:57:42;94473.22;;;11.21;100.00
21588;BME280;10956;48.878;13.316;2023-04-30T06:00:08;94480.63;;;11.29;100.00
21588;BME280;10956;48.878;13.316;2023-04-30T06:02:33;94476.13;;;11.30;100.00
21588;BME280;10956;48.878;13.316;2023-04-30T06:04:59;94475.88;;;11.37;100.00
21588;BME280;10956;48.878;13.316;2023-04-30T06:07:26;94471.94;;;11.44;100.00
21588;BME280;10956;48.878;13.316;2023-04-30T06:09:51;94472.19;;;11.53;100.00
21588;BME280;10956;48.878;13.316;2023-04-30T06:12:16;94478.00;;;11.55;100.00
21588;BME280;10956;48.878;13.316;2023-04-30T06:14:42;94474.81;;;11.58;100.00
21588;BME280;10956;48.878;13.316;2023-04-30T06:17:09;94475.34;;;11.60;100.00
21588;BME280;10956;48.878;13.316;2023-04-30T06:19:35;94482.22;;;11.61;100.00
21588;BME280;10956;48.878;13.316;2023-04-30T06:22:00;94482.22;;;11.61;100.00
21588;BME280;10956;48.878;13.316;2023-04-30T06:24:26;94481.16;;;11.67;100.00
21588;BME280;10956;48.878;13.316;2023-04-30T06:26:51;94479.31;;;11.73;100.00
21588;BME280;10956;48.878;13.316;2023-04-30T06:29:17;94483.28;;;11.80;100.00
21588;BME280;10956;48.878;13.316;2023-04-30T06:31:42;94481.69;;;11.94;99.56
21588;BME280;10956;48.878;13.316;2023-04-30T06:34:08;94493.56;;;12.02;96.48
21588;BME280;10956;48.878;13.316;2023-04-30T06:36:33;94486.94;;;12.15;97.08
21588;BME280;10956;48.878;13.316;2023-04-30T06:38:58;94501.19;;;12.24;97.87
21588;BME280;10956;48.878;13.316;2023-04-30T06:41:24;94488.22;;;12.33;98.13
21588;BME280;10956;48.878;13.316;2023-04-30T06:43:49;94496.38;;;12.41;98.21
21588;BME280;10956;48.878;13.316;2023-04-30T06:46:15;94497.13;;;12.52;97.54
21588;BME280;10956;48.878;13.316;2023-04-30T06:48:40;94499.97;;;12.71;96.64
21588;BME280;10956;48.878;13.316;2023-04-30T06:51:06;94499.38;;;12.84;96.65
21588;BME280;10956;48.878;13.316;2023-04-30T06:53:31;94497.75;;;12.93;95.53
21588;BME280;10956;48.878;13.316;2023-04-30T06:55:56;94491.06;;;13.06;94.27
21588;BME280;10956;48.878;13.316;2023-04-30T06:58:22;94499.75;;;13.11;94.13
21588;BME280;10956;48.878;13.316;2023-04-30T07:00:48;94497.09;;;13.21;93.32
21588;BME280;10956;48.878;13.316;2023-04-30T07:03:13;94503.91;;;13.33;92.47
21588;BME280;10956;48.878;13.316;2023-04-30T07:05:38;94506.47;;;13.43;92.03
21588;BME280;10956;48.878;13.316;2023-04-30T07:08:05;94498.97;;;13.55;91.27
21588;BME280;10956;48.878;13.316;2023-04-30T07:10:31;94501.50;;;13.70;89.93
21588;BME280;10956;48.878;13.316;2023-04-30T07:12:56;94499.19;;;13.93;88.93
21588;BME280;10956;48.878;13.316;2023-04-30T07:15:23;94500.03;;;14.17;87.12
21588;BME280;10956;48.878;13.316;2023-04-30T07:17:49;94498.81;;;14.33;86.36
21588;BME280;10956;48.878;13.316;2023-04-30T07:20:14;94497.03;;;14.52;86.00
21588;BME280;10956;48.878;13.316;2023-04-30T07:22:40;94500.66;;;14.62;83.95
21588;BME280;10956;48.878;13.316;2023-04-30T07:25:08;94496.41;;;14.61;81.86
21588;BME280;10956;48.878;13.316;2023-04-30T07:27:34;94495.97;;;14.53;78.76
21588;BME280;10956;48.878;13.316;2023-04-30T07:29:59;94491.38;;;14.35;73.44
21588;BME280;10956;48.878;13.316;2023-04-30T07:32:25;94502.06;;;14.25;73.68
21588;BME280;10956;48.878;13.316;2023-04-30T07:34:52;94492.13;;;14.12;71.67
21588;BME280;10956;48.878;13.316;2023-04-30T07:37:18;94499.63;;;14.05;73.78
21588;BME280;10956;48.878;13.316;2023-04-30T07:39:43;94511.06;;;14.00;73.22
21588;BME280;10956;48.878;13.316;2023-04-30T07:42:08;94503.13;;;13.66;72.46
21588;BME280;10956;48.878;13.316;2023-04-30T07:44:34;94497.31;;;13.64;73.74
21588;BME280;10956;48.878;13.316;2023-04-30T07:46:59;94498.91;;;13.65;73.77
21588;BME280;10956;48.878;13.316;2023-04-30T07:49:25;94498.72;;;13.85;74.08
21588;BME280;10956;48.878;13.316;2023-04-30T07:51:50;94481.06;;;14.05;72.39
21588;BME280;10956;48.878;13.316;2023-04-30T07:54:16;94493.81;;;14.03;71.58
21588;BME280;10956;48.878;13.316;2023-04-30T07:56:41;94506.31;;;13.97;71.64
21588;BME280;10956;48.878;13.316;2023-04-30T07:59:07;94500.97;;;13.73;71.56
21588;BME280;10956;48.878;13.316;2023-04-30T08:01:32;94506.09;;;13.94;72.56
21588;BME280;10956;48.878;13.316;2023-04-30T08:03:58;94497.91;;;14.19;72.04
21588;BME280;10956;48.878;13.316;2023-04-30T08:06:24;94501.97;;;14.35;70.54
21588;BME280;10956;48.878;13.316;2023-04-30T08:08:49;94505.84;;;14.48;68.71
21588;BME280;10956;48.878;13.316;2023-04-30T08:11:15;94502.47;;;14.37;66.50
21588;BME280;10956;48.878;13.316;2023-04-30T08:13:41;94501.97;;;14.35;68.85
21588;BME280;10956;48.878;13.316;2023-04-30T08:16:06;94503.78;;;14.40;69.19
21588;BME280;10956;48.878;13.316;2023-04-30T08:18:32;94500.94;;;14.60;66.09
21588;BME280;10956;48.878;13.316;2023-04-30T08:20:59;94498.75;;;14.86;66.43
21588;BME280;10956;48.878;13.316;2023-04-30T08:23:24;94503.38;;;14.99;65.54
21588;BME280;10956;48.878;13.316;2023-04-30T08:25:50;94506.91;;;15.13;65.30
21588;BME280;10956;48.878;13.316;2023-04-30T08:28:15;94505.38;;;14.89;66.06
21588;BME280;10956;48.878;13.316;2023-04-30T08:30:41;94504.47;;;14.74;68.25
21588;BME280;10956;48.878;13.316;2023-04-30T08:33:07;94523.94;;;14.65;67.31
21588;BME280;10956;48.878;13.316;2023-04-30T08:35:33;94509.09;;;14.40;65.88
21588;BME280;10956;48.878;13.316;2023-04-30T08:37:58;94514.91;;;14.13;64.60
21588;BME280;10956;48.878;13.316;2023-04-30T08:40:24;94520.53;;;14.06;67.32
21588;BME280;10956;48.878;13.316;2023-04-30T08:42:56;94522.69;;;13.70;64.78
21588;BME280;10956;48.878;13.316;2023-04-30T08:45:24;94522.78;;;13.60;66.68
21588;BME280;10956;48.878;13.316;2023-04-30T08:47:50;94536.53;;;13.62;67.03
21588;BME280;10956;48.878;13.316;2023-04-30T08:50:16;94524.28;;;13.32;66.73
21588;BME280;10956;48.878;13.316;2023-04-30T08:52:42;94518.69;;;13.39;66.66
21588;BME280;10956;48.878;13.316;2023-04-30T08:55:08;94520.88;;;13.66;66.42
21588;BME280;10956;48.878;13.316;2023-04-30T08:57:35;94513.16;;;13.69;67.25
21588;BME280;10956;48.878;13.316;2023-04-30T09:00:02;94521.16;;;13.64;68.41
21588;BME280;10956;48.878;13.316;2023-04-30T09:02:31;94525.16;;;13.62;69.23
21588;BME280;10956;48.878;13.316;2023-04-30T09:04:57;94526.56;;;13.49;67.72
21588;BME280;10956;48.878;13.316;2023-04-30T09:07:23;94527.59;;;13.53;66.46
21588;BME280;10956;48.878;13.316;2023-04-30T09:09:51;94534.31;;;13.35;64.46
21588;BME280;10956;48.878;13.316;2023-04-30T09:12:18;94535.56;;;13.48;64.53
21588;BME280;10956;48.878;13.316;2023-04-30T09:17:28;94538.97;;;13.87;64.27
21588;BME280;10956;48.878;13.316;2023-04-30T09:19:55;94531.84;;;14.17;63.99
21588;BME280;10956;48.878;13.316;2023-04-30T09:22:30;94531.38;;;14.10;61.60
21588;BME280;10956;48.878;13.316;2023-04-30T09:24:56;94521.13;;;14.27;62.84
21588;BME280;10956;48.878;13.316;2023-04-30T09:27:21;94522.09;;;14.36;62.92
21588;BME280;10956;48.878;13.316;2023-04-30T09:29:47;94519.47;;;14.36;64.75
21588;BME280;10956;48.878;13.316;2023-04-30T09:32:13;94523.09;;;14.45;64.61
21588;BME280;10956;48.878;13.316;2023-04-30T09:34:39;94523.66;;;14.42;59.50
21588;BME280;10956;48.878;13.316;2023-04-30T09:37:05;94520.41;;;14.50;60.15
21588;BME280;10956;48.878;13.316;2023-04-30T09:39:31;94524.34;;;14.53;60.62
21588;BME280;10956;48.878;13.316;2023-04-30T09:42:09;94524.72;;;13.83;59.05
21588;BME280;10956;48.878;13.316;2023-04-30T09:44:39;94530.84;;;13.79;62.53
21588;BME280;10956;48.878;13.316;2023-04-30T09:47:14;94538.00;;;13.78;60.72
21588;BME280;10956;48.878;13.316;2023-04-30T09:49:40;94529.97;;;13.54;61.24
21588;BME280;10956;48.878;13.316;2023-04-30T09:52:07;94535.97;;;13.26;64.85
21588;BME280;10956;48.878;13.316;2023-04-30T09:54:33;94532.47;;;13.36;63.95
21588;BME280;10956;48.878;13.316;2023-04-30T09:57:00;94536.72;;;13.32;65.88
21588;BME280;10956;48.878;13.316;2023-04-30T09:59:30;94525.59;;;13.35;66.94
21588;BME280;10956;48.878;13.316;2023-04-30T10:01:58;94532.81;;;13.14;66.06
21588;BME280;10956;48.878;13.316;2023-04-30T10:04:28;94535.78;;;13.07;68.24
21588;BME280;10956;48.878;13.316;2023-04-30T10:06:56;94520.94;;;13.11;68.42
21588;BME280;10956;48.878;13.316;2023-04-30T10:09:25;94529.75;;;12.97;68.77
21588;BME280;10956;48.878;13.316;2023-04-30T10:11:55;94527.56;;;13.09;69.21
21588;BME280;10956;48.878;13.316;2023-04-30T10:14:22;94523.06;;;13.09;67.22
21588;BME280;10956;48.878;13.316;2023-04-30T10:16:58;94523.16;;;13.43;66.89
21588;BME280;10956;48.878;13.316;2023-04-30T10:19:33;94519.06;;;13.61;67.67
21588;BME280;10956;48.878;13.316;2023-04-30T10:22:00;94523.47;;;13.71;66.77
21588;BME280;10956;48.878;13.316;2023-04-30T10:24:26;94516.84;;;13.73;66.22
21588;BME280;10956;48.878;13.316;2023-04-30T10:26:52;94517.13;;;13.72;67.60
21588;BME280;10956;48.878;13.316;2023-04-30T10:29:17;94508.69;;;13.65;67.24
21588;BME280;10956;48.878;13.316;2023-04-30T10:31:50;94508.81;;;13.83;67.06
21588;BME280;10956;48.878;13.316;2023-04-30T10:39:36;94513.75;;;13.95;65.76
21588;BME280;10956;48.878;13.316;2023-04-30T10:42:03;94510.91;;;14.15;65.83
21588;BME280;10956;48.878;13.316;2023-04-30T10:44:36;94506.69;;;14.43;65.87
21588;BME280;10956;48.878;13.316;2023-04-30T10:47:05;94503.81;;;14.64;64.33
21588;BME280;10956;48.878;13.316;2023-04-30T10:49:30;94502.56;;;14.80;63.93
21588;BME280;10956;48.878;13.316;2023-04-30T10:52:03;94501.38;;;15.10;63.25
21588;BME280;10956;48.878;13.316;2023-04-30T10:54:34;94502.25;;;15.43;64.02
21588;BME280;10956;48.878;13.316;2023-04-30T10:57:14;94501.75;;;15.41;63.17
21588;BME280;10956;48.878;13.316;2023-04-30T11:02:42;94503.09;;;15.01;62.06
21588;BME280;10956;48.878;13.316;2023-04-30T11:05:12;94501.78;;;14.56;62.46
21588;BME280;10956;48.878;13.316;2023-04-30T11:07:55;94510.66;;;14.41;64.13
21588;BME280;10956;48.878;13.316;2023-04-30T11:10:22;94501.88;;;14.45;63.25
21588;BME280;10956;48.878;13.316;2023-04-30T11:12:49;94495.22;;;14.72;63.56
21588;BME280;10956;48.878;13.316;2023-04-30T11:15:26;94496.72;;;15.21;62.06
21588;BME280;10956;48.878;13.316;2023-04-30T11:17:57;94486.66;;;15.74;61.31
21588;BME280;10956;48.878;13.316;2023-04-30T11:20:24;94480.94;;;16.13;61.35
21588;BME280;10956;48.878;13.316;2023-04-30T11:23:09;94481.72;;;16.00;59.52
21588;BME280;10956;48.878;13.316;2023-04-30T11:25:43;94481.22;;;15.65;59.25
21588;BME280;10956;48.878;13.316;2023-04-30T11:28:19;94483.28;;;15.68;59.62
21588;BME280;10956;48.878;13.316;2023-04-30T11:30:53;94484.72;;;15.42;59.20
21588;BME280;10956;48.878;13.316;2023-04-30T11:33:19;94481.66;;;15.35;60.30
21588;BME280;10956;48.878;13.316;2023-04-30T11:35:47;94484.59;;;15.33;60.89
21588;BME280;10956;48.878;13.316;2023-04-30T11:38:16;94479.63;;;15.27;60.77
21588;BME280;10956;48.878;13.316;2023-04-30T11:40:42;94482.28;;;15.27;60.35
21588;BME280;10956;48.878;13.316;2023-04-30T11:43:23;94475.47;;;15.21;60.61
21588;BME280;10956;48.878;13.316;2023-04-30T11:46:10;94481.44;;;15.12;59.48
21588;BME280;10956;48.878;13.316;2023-04-30T11:48:37;94485.22;;;15.06;59.88
21588;BME280;10956;48.878;13.316;2023-04-30T11:51:13;94476.19;;;15.07;59.68
21588;BME280;10956;48.878;13.316;2023-04-30T11:53:39;94471.31;;;15.14;59.19
21588;BME280;10956;48.878;13.316;2023-04-30T11:56:05;94483.50;;;15.15;60.46
21588;BME280;10956;48.878;13.316;2023-04-30T11:58:35;94476.97;;;15.08;59.62
21588;BME280;10956;48.878;13.316;2023-04-30T12:01:06;94486.94;;;14.97;60.93
21588;BME280;10956;48.878;13.316;2023-04-30T12:03:39;94478.41;;;14.58;61.48
21588;BME280;10956;48.878;13.316;2023-04-30T12:06:05;94473.59;;;14.36;62.78
21588;BME280;10956;48.878;13.316;2023-04-30T12:08:34;94470.78;;;14.27;62.58
21588;BME280;10956;48.878;13.316;2023-04-30T12:10:59;94471.44;;;14.43;64.17
21588;BME280;10956;48.878;13.316;2023-04-30T12:13:25;94465.97;;;14.77;63.55
21588;BME280;10956;48.878;13.316;2023-04-30T12:15:59;94459.56;;;15.21;62.12
21588;BME280;10956;48.878;13.316;2023-04-30T12:18:25;94461.38;;;15.76;61.47
21588;BME280;10956;48.878;13.316;2023-04-30T12:20:51;94456.63;;;16.06;59.91
21588;BME280;10956;48.878;13.316;2023-04-30T12:23:17;94453.78;;;16.43;59.55
21588;BME280;10956;48.878;13.316;2023-04-30T12:25:43;94459.63;;;16.73;59.64
21588;BME280;10956;48.878;13.316;2023-04-30T12:28:09;94458.91;;;16.95;60.25
21588;BME280;10956;48.878;13.316;2023-04-30T12:30:35;94462.84;;;16.97;60.11
21588;BME280;10956;48.878;13.316;2023-04-30T12:33:00;94454.59;;;16.85;56.91
21588;BME280;10956;48.878;13.316;2023-04-30T12:35:28;94457.34;;;16.80;55.99
21588;BME280;10956;48.878;13.316;2023-04-30T12:38:05;94453.78;;;16.98;57.34
21588;BME280;10956;48.878;13.316;2023-04-30T12:40:31;94447.47;;;16.94;58.85
21588;BME280;10956;48.878;13.316;2023-04-30T12:48:15;94442.66;;;16.41;56.66
21588;BME280;10956;48.878;13.316;2023-04-30T12:50:41;94434.75;;;15.95;57.41
21588;BME280;10956;48.878;13.316;2023-04-30T12:53:07;94441.28;;;15.70;57.52
21588;BME280;10956;48.878;13.316;2023-04-30T12:55:33;94438.13;;;15.49;57.61
21588;BME280;10956;48.878;13.316;2023-04-30T12:58:06;94426.66;;;15.54;58.14
21588;BME280;10956;48.878;13.316;2023-04-30T13:00:50;94421.97;;;15.65;58.04
21588;BME280;10956;48.878;13.316;2023-04-30T13:03:18;94410.22;;;15.85;62.40
21588;BME280;10956;48.878;13.316;2023-04-30T13:05:46;94417.16;;;16.13;63.13
21588;BME280;10956;48.878;13.316;2023-04-30T13:08:12;94412.72;;;16.50;60.07
21588;BME280;10956;48.878;13.316;2023-04-30T13:10:38;94411.63;;;16.78;58.06
21588;BME280;10956;48.878;13.316;2023-04-30T13:13:03;94406.22;;;17.05;56.88
21588;BME280;10956;48.878;13.316;2023-04-30T13:15:29;94394.03;;;17.27;54.66
21588;BME280;10956;48.878;13.316;2023-04-30T13:17:54;94397.66;;;17.31;53.68
21588;BME280;10956;48.878;13.316;2023-04-30T13:20:20;94387.19;;;17.34;53.55
21588;BME280;10956;48.878;13.316;2023-04-30T13:22:45;94394.75;;;17.41;54.11
21588;BME280;10956;48.878;13.316;2023-04-30T13:25:10;94397.78;;;17.48;53.73
21588;BME280;10956;48.878;13.316;2023-04-30T13:27:36;94393.22;;;17.49;53.91